createdAt,value
2023-03-28T00:01:03.357Z,10.24
2023-03-28T00:03:38.834Z,10.24
2023-03-28T00:06:10.456Z,10.23
2023-03-28T00:08:38.906Z,10.20
2023-03-28T00:11:07.839Z,10.17
2023-03-28T00:13:34.820Z,10.14
2023-03-28T00:16:03.400Z,10.12
2023-03-28T00:18:32.122Z,10.11
2023-03-28T00:20:59.592Z,10.11
2023-03-28T00:23:27.382Z,10.10
2023-03-28T00:25:54.474Z,10.09
2023-03-28T00:28:23.286Z,10.08
2023-03-28T00:31:02.493Z,10.08
2023-03-28T00:33:29.757Z,10.07
2023-03-28T00:35:56.560Z,10.07
2023-03-28T00:38:27.240Z,10.04
2023-03-28T00:40:57.101Z,10.04
2023-03-28T00:43:37.288Z,10.02
2023-03-28T00:46:09.276Z,10.00
2023-03-28T00:48:36.445Z,9.98
2023-03-28T00:51:05.044Z,9.95
2023-03-28T00:53:33.160Z,9.93
2023-03-28T00:56:07.274Z,9.89
2023-03-28T00:58:36.762Z,10.00
2023-03-28T01:01:03.972Z,10.11
2023-03-28T01:03:34.009Z,10.14
2023-03-28T01:06:04.003Z,10.14
2023-03-28T01:08:39.260Z,10.14
2023-03-28T01:11:06.254Z,10.11
2023-03-28T01:13:39.117Z,10.08
2023-03-28T01:16:07.051Z,10.07
2023-03-28T01:18:34.716Z,10.05
2023-03-28T01:21:01.640Z,10.00
2023-03-28T01:23:47.340Z,9.94
2023-03-28T01:26:52.286Z,9.88
2023-03-28T01:29:36.692Z,9.86
2023-03-28T01:32:29.308Z,9.83
2023-03-28T01:35:32.779Z,9.92
2023-03-28T01:38:22.745Z,9.93
2023-03-28T01:40:58.628Z,9.89
2023-03-28T01:43:43.942Z,9.87
2023-03-28T01:46:15.121Z,9.87
2023-03-28T01:49:10.572Z,9.85
2023-03-28T01:52:06.846Z,9.82
2023-03-28T01:55:02.698Z,9.79
2023-03-28T01:57:54.744Z,9.76
2023-03-28T02:00:28.767Z,9.81
2023-03-28T02:03:11.292Z,9.79
2023-03-28T02:06:38.629Z,9.72
2023-03-28T02:09:12.818Z,9.62
2023-03-28T02:12:02.830Z,9.54
2023-03-28T02:14:45.009Z,9.49
2023-03-28T02:17:43.490Z,9.58
2023-03-28T02:20:31.918Z,9.63
2023-03-28T02:23:21.264Z,9.59
2023-03-28T02:26:02.864Z,9.53
2023-03-28T02:28:57.003Z,9.49
2023-03-28T02:31:57.580Z,9.44
2023-03-28T02:34:26.056Z,9.42
2023-03-28T02:37:00.376Z,9.39
2023-03-28T02:39:35.565Z,9.46
2023-03-28T02:42:10.909Z,9.52
2023-03-28T02:45:00.906Z,9.50
2023-03-28T02:47:51.144Z,9.46
2023-03-28T02:50:50.358Z,9.44
2023-03-28T02:53:38.915Z,9.41
2023-03-28T02:56:10.898Z,9.41
2023-03-28T02:59:26.548Z,9.46
2023-03-28T03:01:54.682Z,9.38
2023-03-28T03:04:22.823Z,9.26
2023-03-28T03:06:51.003Z,9.12
2023-03-28T03:09:27.108Z,9.05
2023-03-28T03:11:55.170Z,9.05
2023-03-28T03:14:23.407Z,8.93
2023-03-28T03:16:52.977Z,8.75
2023-03-28T03:19:21.966Z,8.61
2023-03-28T03:21:49.994Z,8.57
2023-03-28T03:24:18.527Z,8.49
2023-03-28T03:26:46.649Z,8.36
2023-03-28T03:29:18.117Z,8.32
2023-03-28T03:31:46.807Z,8.38
2023-03-28T03:34:20.959Z,8.37
2023-03-28T03:36:55.131Z,8.34
2023-03-28T03:39:24.732Z,8.33
2023-03-28T03:41:52.817Z,8.40
2023-03-28T03:44:21.519Z,8.48
2023-03-28T03:46:49.577Z,8.48
2023-03-28T03:49:17.515Z,8.48
2023-03-28T03:51:46.029Z,8.53
2023-03-28T03:54:17.949Z,8.69
2023-03-28T03:56:46.594Z,8.79
2023-03-28T03:59:15.656Z,8.78
2023-03-28T04:01:44.328Z,8.72
2023-03-28T04:04:40.656Z,8.68
2023-03-28T04:07:20.575Z,8.77
2023-03-28T04:09:49.610Z,8.81
2023-03-28T04:12:18.714Z,8.80
2023-03-28T04:14:48.253Z,8.79
2023-03-28T04:17:45.348Z,8.82
2023-03-28T04:20:18.385Z,8.94
2023-03-28T04:23:06.094Z,9.00
2023-03-28T04:25:35.364Z,8.98
2023-03-28T04:28:14.011Z,8.99
2023-03-28T04:30:58.268Z,9.12
2023-03-28T04:33:35.928Z,9.20
2023-03-28T04:36:06.068Z,9.21
2023-03-28T04:38:36.378Z,9.23
2023-03-28T04:41:26.274Z,9.36
2023-03-28T04:44:03.168Z,9.39
2023-03-28T04:46:37.940Z,9.28
2023-03-28T04:49:13.254Z,9.22
2023-03-28T04:51:46.296Z,9.33
2023-03-28T04:54:15.065Z,9.41
2023-03-28T04:56:49.628Z,9.42
2023-03-28T04:59:24.138Z,9.40
2023-03-28T05:01:58.522Z,9.37
2023-03-28T05:04:42.470Z,9.45
2023-03-28T05:07:11.182Z,9.52
2023-03-28T05:09:39.251Z,9.51
2023-03-28T05:12:12.440Z,9.46
2023-03-28T05:15:01.696Z,9.43
2023-03-28T05:17:33.476Z,9.50
2023-03-28T05:20:15.333Z,9.51
2023-03-28T05:22:50.985Z,9.44
2023-03-28T05:25:19.294Z,9.37
2023-03-28T05:27:47.440Z,9.42
2023-03-28T05:30:15.524Z,9.46
2023-03-28T05:32:45.151Z,9.44
2023-03-28T05:35:14.317Z,9.35
2023-03-28T05:37:45.465Z,9.28
2023-03-28T05:40:15.663Z,9.30
2023-03-28T05:42:45.098Z,9.28
2023-03-28T05:45:17.512Z,9.18
2023-03-28T05:47:54.560Z,9.10
2023-03-28T05:50:24.699Z,9.11
2023-03-28T05:52:56.778Z,9.11
2023-03-28T05:55:25.771Z,9.02
2023-03-28T05:57:54.008Z,8.99
2023-03-28T06:00:23.519Z,9.05
2023-03-28T06:02:55.006Z,9.10
2023-03-28T06:05:32.790Z,9.04
2023-03-28T06:08:02.905Z,8.96
2023-03-28T06:10:34.470Z,8.95
2023-03-28T06:13:24.119Z,8.91
2023-03-28T06:15:52.491Z,8.81
2023-03-28T06:18:24.594Z,8.71
2023-03-28T06:20:53.465Z,8.71
2023-03-28T06:23:22.597Z,8.74
2023-03-28T06:25:51.436Z,8.67
2023-03-28T06:28:21.193Z,8.59
2023-03-28T06:31:16.202Z,8.64
2023-03-28T06:33:44.831Z,8.68
2023-03-28T06:36:14.314Z,8.66
2023-03-28T06:38:43.552Z,8.62
2023-03-28T06:41:14.638Z,8.65
2023-03-28T06:43:43.885Z,8.75
2023-03-28T06:46:42.645Z,8.78
2023-03-28T06:49:12.287Z,8.72
2023-03-28T06:52:15.803Z,8.73
2023-03-28T06:54:45.990Z,8.81
2023-03-28T06:57:16.530Z,8.87
2023-03-28T06:59:45.738Z,8.86
2023-03-28T07:02:18.741Z,8.84
2023-03-28T07:04:49.293Z,8.86
2023-03-28T07:07:18.367Z,8.96
2023-03-28T07:09:48.901Z,9.07
2023-03-28T07:12:19.728Z,9.09
2023-03-28T07:14:49.504Z,9.09
2023-03-28T07:17:17.550Z,9.19
2023-03-28T07:19:46.121Z,9.30
2023-03-28T07:22:14.579Z,9.31
2023-03-28T07:24:43.528Z,9.30
2023-03-28T07:27:16.880Z,9.37
2023-03-28T07:29:46.722Z,9.45
2023-03-28T07:32:17.150Z,9.44
2023-03-28T07:34:47.329Z,9.40
2023-03-28T07:37:21.152Z,9.38
2023-03-28T07:40:11.209Z,9.48
2023-03-28T07:42:42.351Z,9.53
2023-03-28T07:45:13.604Z,9.51
2023-03-28T07:47:43.650Z,9.51
2023-03-28T07:50:12.298Z,9.61
2023-03-28T07:52:45.739Z,9.69
2023-03-28T07:55:14.543Z,9.69
2023-03-28T07:57:47.093Z,9.68
2023-03-28T08:00:33.863Z,9.67
2023-03-28T08:03:23.877Z,9.74
2023-03-28T08:05:54.291Z,9.73
2023-03-28T08:08:25.651Z,9.64
2023-03-28T08:11:11.751Z,9.59
2023-03-28T08:13:39.858Z,9.57
2023-03-28T08:16:20.395Z,9.67
2023-03-28T08:18:56.975Z,9.68
2023-03-28T08:21:27.988Z,9.60
2023-03-28T08:23:57.948Z,9.53
2023-03-28T08:26:50.901Z,9.51
2023-03-28T08:29:20.876Z,9.57
2023-03-28T08:31:49.540Z,9.55
2023-03-28T08:34:17.996Z,9.52
2023-03-28T08:36:47.605Z,9.50
2023-03-28T08:39:27.926Z,9.51
2023-03-28T08:42:28.084Z,9.61
2023-03-28T08:45:32.759Z,9.64
2023-03-28T08:48:21.351Z,9.57
2023-03-28T08:50:51.272Z,9.50
2023-03-28T08:53:26.634Z,9.51
2023-03-28T08:55:54.785Z,9.49
2023-03-28T08:58:25.086Z,9.39
2023-03-28T09:00:53.731Z,9.29
2023-03-28T09:03:23.321Z,9.29
2023-03-28T09:06:11.626Z,9.25
2023-03-28T09:08:59.767Z,9.14
2023-03-28T09:11:59.543Z,9.00
2023-03-28T09:14:41.312Z,9.01
2023-03-28T09:17:16.696Z,9.00
2023-03-28T09:20:11.993Z,8.90
2023-03-28T09:23:20.668Z,8.82
2023-03-28T09:26:14.491Z,8.93
2023-03-28T09:28:49.955Z,8.93
2023-03-28T09:31:21.115Z,8.87
2023-03-28T09:33:50.494Z,8.80
2023-03-28T09:36:37.415Z,8.84
2023-03-28T09:39:35.773Z,8.85
2023-03-28T09:42:29.900Z,8.76
2023-03-28T09:45:36.497Z,8.69
2023-03-28T09:48:29.518Z,8.73
2023-03-28T09:51:02.617Z,8.72
2023-03-28T09:53:34.766Z,8.67
2023-03-28T09:56:22.235Z,8.62
2023-03-28T09:58:53.792Z,8.66
2023-03-28T10:01:39.967Z,8.65
2023-03-28T10:04:18.741Z,8.55
2023-03-28T10:07:10.342Z,8.45
2023-03-28T10:09:48.684Z,8.49
2023-03-28T10:12:22.428Z,8.41
2023-03-28T10:14:50.630Z,8.21
2023-03-28T10:17:37.688Z,8.05
2023-03-28T10:20:21.399Z,8.00
2023-03-28T10:22:55.154Z,7.87
2023-03-28T10:25:38.588Z,7.78
2023-03-28T10:28:08.347Z,7.80
2023-03-28T10:30:37.213Z,7.84
2023-03-28T10:33:10.045Z,7.84
2023-03-28T10:36:09.764Z,7.83
2023-03-28T10:38:46.678Z,7.90
2023-03-28T10:41:38.744Z,7.96
2023-03-28T10:44:30.736Z,7.93
2023-03-28T10:47:05.792Z,7.91
2023-03-28T10:49:47.308Z,8.05
2023-03-28T10:52:42.086Z,8.12
2023-03-28T10:55:17.937Z,8.05
2023-03-28T10:58:28.008Z,8.03
2023-03-28T11:01:03.387Z,8.14
2023-03-28T11:03:47.365Z,8.14
2023-03-28T11:06:26.573Z,8.08
2023-03-28T11:09:11.632Z,8.04
2023-03-28T11:12:27.640Z,8.12
2023-03-28T11:15:11.542Z,8.14
2023-03-28T11:18:16.914Z,8.07
2023-03-28T11:21:07.165Z,8.03
2023-03-28T11:23:44.635Z,8.10
2023-03-28T11:26:40.175Z,8.09
2023-03-28T11:29:46.794Z,7.99
2023-03-28T11:32:27.720Z,8.01
2023-03-28T11:35:27.705Z,8.09
2023-03-28T11:38:11.450Z,8.11
2023-03-28T11:40:49.829Z,8.06
2023-03-28T11:43:46.692Z,8.08
2023-03-28T11:46:24.199Z,8.16
2023-03-28T11:48:55.833Z,8.15
2023-03-28T11:51:27.659Z,8.09
2023-03-28T11:54:04.604Z,8.08
2023-03-28T11:57:07.121Z,8.16
2023-03-28T11:59:54.034Z,8.19
2023-03-28T12:02:48.280Z,8.17
2023-03-28T12:05:40.703Z,8.26
2023-03-28T12:08:20.392Z,8.34
2023-03-28T12:10:53.881Z,8.35
2023-03-28T12:13:45.566Z,8.37
2023-03-28T12:16:16.422Z,8.49
2023-03-28T12:18:52.084Z,8.57
2023-03-28T12:22:02.081Z,8.54
2023-03-28T12:25:02.372Z,8.48
2023-03-28T12:27:53.472Z,8.48
2023-03-28T12:30:45.547Z,8.36
2023-03-28T12:33:29.518Z,8.34
2023-03-28T12:36:37.727Z,8.37
2023-03-28T12:50:43.763Z,8.78
2023-03-28T12:53:13.533Z,8.91
2023-03-28T12:55:51.782Z,8.79
2023-03-28T12:58:29.053Z,8.75
2023-03-28T13:01:09.080Z,8.69
2023-03-28T13:04:04.199Z,8.56
2023-03-28T13:07:12.665Z,8.52
2023-03-28T13:09:57.958Z,8.53
2023-03-28T13:12:30.965Z,8.43
2023-03-28T13:15:14.894Z,8.37
2023-03-28T13:18:07.589Z,8.33
2023-03-28T13:20:36.199Z,8.26
2023-03-28T13:23:07.331Z,8.17
2023-03-28T13:25:39.578Z,8.13
2023-03-28T13:28:10.784Z,8.09
2023-03-28T13:30:43.752Z,8.04
2023-03-28T13:33:23.250Z,7.82
2023-03-28T13:36:01.138Z,7.35
2023-03-28T13:38:30.067Z,6.93
2023-03-28T13:41:06.398Z,6.53
2023-03-28T13:43:57.026Z,6.07
2023-03-28T13:46:27.706Z,5.77
2023-03-28T13:49:08.103Z,5.61
2023-03-28T13:52:08.798Z,5.33
2023-03-28T13:54:37.038Z,5.04
2023-03-28T13:57:07.130Z,4.87
2023-03-28T13:59:38.028Z,4.72
2023-03-28T14:02:18.490Z,4.52
2023-03-28T14:04:51.774Z,4.42
2023-03-28T14:07:27.293Z,4.24
2023-03-28T14:09:58.962Z,4.01
2023-03-28T14:12:33.913Z,3.84
2023-03-28T14:15:02.145Z,3.64
2023-03-28T14:17:33.122Z,3.54
2023-03-28T14:20:06.412Z,3.39
2023-03-28T14:23:00.593Z,3.23
2023-03-28T14:25:30.466Z,3.18
2023-03-28T14:28:11.132Z,3.11
2023-03-28T14:30:42.424Z,2.90
2023-03-28T14:33:14.102Z,2.79
2023-03-28T14:35:43.264Z,2.75
2023-03-28T14:38:17.715Z,2.60
2023-03-28T14:40:45.985Z,2.53
2023-03-28T14:43:17.144Z,2.49
2023-03-28T14:45:52.019Z,2.30
2023-03-28T14:48:23.296Z,2.11
2023-03-28T14:50:53.333Z,2.05
2023-03-28T14:53:27.287Z,1.98
2023-03-28T14:56:01.122Z,1.91
2023-03-28T14:58:30.484Z,1.94
2023-03-28T15:01:00.088Z,1.87
2023-03-28T15:03:39.681Z,1.75
2023-03-28T15:06:15.582Z,1.70
2023-03-28T15:08:44.246Z,1.57
2023-03-28T15:11:15.986Z,1.49
2023-03-28T15:13:49.206Z,1.40
2023-03-28T15:16:19.907Z,1.23
2023-03-28T15:19:07.181Z,1.13
2023-03-28T15:21:37.247Z,1.15
2023-03-28T15:24:05.861Z,1.09
2023-03-28T15:26:42.115Z,1.01
2023-03-28T15:29:14.798Z,1.02
2023-03-28T15:31:43.132Z,0.99
2023-03-28T15:34:13.202Z,0.92
2023-03-28T15:36:52.798Z,0.89
2023-03-28T15:39:37.783Z,0.92
2023-03-28T15:42:19.140Z,0.89
2023-03-28T15:44:59.712Z,0.88
2023-03-28T15:47:31.482Z,0.90
2023-03-28T15:50:04.173Z,0.84
2023-03-28T15:52:34.514Z,0.84
2023-03-28T15:55:03.065Z,0.83
2023-03-28T15:57:31.848Z,0.78
2023-03-28T16:00:01.230Z,0.65
2023-03-28T16:02:32.744Z,0.56
2023-03-28T16:05:14.963Z,0.58
2023-03-28T16:07:46.406Z,0.57
2023-03-28T16:10:18.937Z,0.46
2023-03-28T16:13:06.910Z,0.43
2023-03-28T16:16:05.996Z,0.49
2023-03-28T16:18:47.638Z,0.39
2023-03-28T16:21:24.096Z,0.33
2023-03-28T16:23:52.255Z,0.37
2023-03-28T16:26:21.753Z,0.36
2023-03-28T16:28:50.145Z,0.30
2023-03-28T16:31:18.340Z,0.23
2023-03-28T16:33:47.471Z,0.24
2023-03-28T16:36:15.597Z,0.24
2023-03-28T16:38:43.827Z,0.18
2023-03-28T16:41:12.566Z,0.17
2023-03-28T16:43:40.756Z,0.21
2023-03-28T16:46:11.121Z,0.16
2023-03-28T16:48:40.640Z,0.08
2023-03-28T16:51:09.351Z,0.10
2023-03-28T16:53:43.480Z,0.10
2023-03-28T16:56:15.630Z,0.03
2023-03-28T16:58:43.714Z,0.05
2023-03-28T17:01:19.201Z,0.06
2023-03-28T17:03:49.753Z,0.05
2023-03-28T17:06:19.477Z,0.04
2023-03-28T17:08:48.773Z,-0.02
2023-03-28T17:11:17.050Z,-0.02
2023-03-28T17:13:47.761Z,0.04
2023-03-28T17:16:15.986Z,-0.03
2023-03-28T17:18:45.881Z,-0.08
2023-03-28T17:21:14.468Z,-0.08
2023-03-28T17:23:44.977Z,-0.13
2023-03-28T17:29:16.324Z,-0.16
2023-03-28T17:31:45.251Z,-0.18
2023-03-28T17:34:15.014Z,-0.29
2023-03-28T17:36:44.548Z,-0.35
2023-03-28T17:39:12.793Z,-0.32
2023-03-28T17:41:41.939Z,-0.37
2023-03-28T17:44:11.362Z,-0.42
2023-03-28T17:46:41.516Z,-0.40
2023-03-28T17:49:11.686Z,-0.37
2023-03-28T17:51:44.175Z,-0.43
2023-03-28T17:54:12.731Z,-0.45
2023-03-28T17:56:44.856Z,-0.42
2023-03-28T17:59:13.779Z,-0.47
2023-03-28T18:01:42.368Z,-0.48
2023-03-28T18:04:10.714Z,-0.48
2023-03-28T18:06:58.150Z,-0.52
2023-03-28T18:09:28.794Z,-0.58
2023-03-28T18:11:57.948Z,-0.58
2023-03-28T18:14:26.853Z,-0.57
2023-03-28T18:16:58.585Z,-0.64
2023-03-28T18:19:27.495Z,-0.72
2023-03-28T18:21:56.703Z,-0.71
2023-03-28T18:24:25.338Z,-0.69
2023-03-28T18:26:53.979Z,-0.73
2023-03-28T18:29:25.359Z,-0.71
2023-03-28T18:31:53.742Z,-0.65
2023-03-28T18:34:22.087Z,-0.66
2023-03-28T18:36:51.393Z,-0.68
2023-03-28T18:39:20.194Z,-0.64
2023-03-28T18:41:49.578Z,-0.69
2023-03-28T18:44:18.491Z,-0.68
2023-03-28T18:46:54.707Z,-0.65
2023-03-28T18:49:23.794Z,-0.73
2023-03-28T18:51:52.763Z,-0.76
2023-03-28T18:54:23.547Z,-0.73
2023-03-28T18:56:52.397Z,-0.81
2023-03-28T18:59:25.840Z,-0.88
2023-03-28T19:01:54.688Z,-0.85
2023-03-28T19:04:23.601Z,-0.85
2023-03-28T19:06:52.614Z,-0.95
2023-03-28T19:09:21.346Z,-0.96
2023-03-28T19:11:51.087Z,-0.91
2023-03-28T19:14:19.495Z,-0.95
2023-03-28T19:16:48.043Z,-0.97
2023-03-28T19:19:16.676Z,-0.92
2023-03-28T19:21:46.751Z,-0.97
2023-03-28T19:24:14.789Z,-1.00
2023-03-28T19:26:44.336Z,-0.93
2023-03-28T19:29:13.598Z,-0.89
2023-03-28T19:31:42.599Z,-1.00
2023-03-28T19:34:18.790Z,-1.06
2023-03-28T19:36:47.844Z,-1.00
2023-03-28T19:39:16.840Z,-1.03
2023-03-28T19:41:46.084Z,-1.07
2023-03-28T19:44:14.527Z,-1.03
2023-03-28T19:46:43.056Z,-0.97
2023-03-28T19:49:15.940Z,-1.04
2023-03-28T19:51:44.724Z,-1.09
2023-03-28T19:54:12.850Z,-1.08
2023-03-28T19:56:43.008Z,-1.09
2023-03-28T19:59:11.081Z,-1.15
2023-03-28T20:01:39.403Z,-1.14
2023-03-28T20:04:09.622Z,-1.09
2023-03-28T20:06:38.411Z,-1.15
2023-03-28T20:09:07.510Z,-1.18
2023-03-28T20:11:38.160Z,-1.09
2023-03-28T20:14:06.794Z,-1.07
2023-03-28T20:16:40.384Z,-1.08
2023-03-28T20:19:08.770Z,-1.02
2023-03-28T20:21:37.435Z,-1.03
2023-03-28T20:24:06.687Z,-1.04
2023-03-28T20:26:35.593Z,-0.96
2023-03-28T20:29:15.905Z,-0.96
2023-03-28T20:31:45.158Z,-1.03
2023-03-28T20:34:14.529Z,-0.98
2023-03-28T20:36:46.527Z,-0.88
2023-03-28T20:39:15.100Z,-0.91
2023-03-28T20:41:43.851Z,-0.95
2023-03-28T20:44:20.224Z,-0.88
2023-03-28T20:46:49.025Z,-0.82
2023-03-28T20:49:22.719Z,-0.83
2023-03-28T20:51:51.906Z,-0.86
2023-03-28T20:54:24.613Z,-0.77
2023-03-28T20:56:56.189Z,-0.75
2023-03-28T20:59:28.652Z,-0.79
2023-03-28T21:01:57.559Z,-0.73
2023-03-28T21:04:26.278Z,-0.66
2023-03-28T21:06:57.837Z,-0.74
2023-03-28T21:09:26.256Z,-0.79
2023-03-28T21:11:54.660Z,-0.73
2023-03-28T21:14:29.885Z,-0.78
2023-03-28T21:16:59.597Z,-0.82
2023-03-28T21:22:45.387Z,-0.75
2023-03-28T21:25:14.478Z,-0.69
2023-03-28T21:27:43.727Z,-0.60
2023-03-28T21:30:14.341Z,-0.62
2023-03-28T21:33:03.452Z,-0.59
2023-03-28T21:35:32.329Z,-0.52
2023-03-28T21:38:01.071Z,-0.55
2023-03-28T21:40:29.502Z,-0.62
2023-03-28T21:42:59.318Z,-0.60
2023-03-28T21:45:27.746Z,-0.53
2023-03-28T21:47:59.360Z,-0.57
2023-03-28T21:50:31.702Z,-0.63
2023-03-28T21:53:01.184Z,-0.56
2023-03-28T21:55:34.721Z,-0.50
2023-03-28T21:58:03.814Z,-0.53
2023-03-28T22:00:38.897Z,-0.52
2023-03-28T22:03:07.319Z,-0.43
2023-03-28T22:05:43.170Z,-0.45
2023-03-28T22:08:12.502Z,-0.45
2023-03-28T22:10:50.064Z,-0.39
2023-03-28T22:13:19.715Z,-0.44
2023-03-28T22:15:58.126Z,-0.49
2023-03-28T22:18:26.557Z,-0.43
2023-03-28T22:20:56.500Z,-0.40
2023-03-28T22:23:24.609Z,-0.45
2023-03-28T22:25:53.317Z,-0.45
2023-03-28T22:28:25.059Z,-0.36
2023-03-28T22:30:53.912Z,-0.37
2023-03-28T22:33:26.857Z,-0.44
2023-03-28T22:35:54.990Z,-0.45
2023-03-28T22:38:23.034Z,-0.39
2023-03-28T22:40:51.953Z,-0.33
2023-03-28T22:43:19.994Z,-0.36
2023-03-28T22:45:51.144Z,-0.38
2023-03-28T22:48:20.409Z,-0.29
2023-03-28T22:50:48.653Z,-0.28
2023-03-28T22:53:17.984Z,-0.35
2023-03-28T22:55:46.381Z,-0.38
2023-03-28T22:58:19.878Z,-0.35
2023-03-28T23:00:49.979Z,-0.38
2023-03-28T23:03:20.757Z,-0.42
2023-03-28T23:05:51.761Z,-0.35
2023-03-28T23:08:20.729Z,-0.33
2023-03-28T23:10:49.860Z,-0.35
2023-03-28T23:13:18.358Z,-0.33
2023-03-28T23:15:47.308Z,-0.39
2023-03-28T23:18:20.854Z,-0.51
2023-03-28T23:20:51.090Z,-0.51
2023-03-28T23:23:19.450Z,-0.42
2023-03-28T23:25:52.904Z,-0.41
2023-03-28T23:28:22.144Z,-0.47
2023-03-28T23:30:54.156Z,-0.45
2023-03-28T23:33:22.837Z,-0.38
2023-03-28T23:35:50.925Z,-0.43
2023-03-28T23:38:19.955Z,-0.52
2023-03-28T23:40:49.132Z,-0.49
2023-03-28T23:43:19.652Z,-0.43
2023-03-28T23:45:47.965Z,-0.46
2023-03-28T23:48:16.706Z,-0.52
2023-03-28T23:50:44.890Z,-0.44
2023-03-28T23:53:13.110Z,-0.43
2023-03-28T23:55:41.797Z,-0.50
2023-03-28T23:58:10.484Z,-0.47
